createdAt,value
2023-02-08T00:01:06.795Z,21.67
2023-02-08T00:03:33.568Z,20.40
2023-02-08T00:06:00.279Z,21.00
2023-02-08T00:08:27.054Z,20.88
2023-02-08T00:10:53.916Z,19.40
2023-02-08T00:13:20.681Z,19.98
2023-02-08T00:15:48.188Z,20.85
2023-02-08T00:18:15.624Z,21.02
2023-02-08T00:20:44.006Z,21.25
2023-02-08T00:23:12.623Z,19.90
2023-02-08T00:25:41.279Z,21.23
2023-02-08T00:28:13.201Z,19.90
2023-02-08T00:30:40.555Z,20.73
2023-02-08T00:33:07.758Z,20.77
2023-02-08T00:35:34.815Z,19.70
2023-02-08T00:38:01.577Z,19.17
2023-02-08T00:40:28.757Z,18.73
2023-02-08T00:42:55.512Z,19.85
2023-02-08T00:45:22.243Z,19.90
2023-02-08T00:47:49.090Z,19.35
2023-02-08T00:50:16.032Z,20.05
2023-02-08T00:52:42.774Z,19.83
2023-02-08T00:55:09.540Z,21.52
2023-02-08T00:57:36.513Z,24.38
2023-02-08T01:00:05.222Z,24.40
2023-02-08T01:02:31.982Z,23.10
2023-02-08T01:04:58.818Z,21.63
2023-02-08T01:07:25.564Z,21.15
2023-02-08T01:09:52.271Z,20.75
2023-02-08T01:12:19.025Z,21.30
2023-02-08T01:14:45.823Z,19.45
2023-02-08T01:17:12.531Z,20.52
2023-02-08T01:19:41.120Z,21.05
2023-02-08T01:22:08.918Z,21.10
2023-02-08T01:24:35.662Z,21.60
2023-02-08T01:27:02.853Z,20.85
2023-02-08T01:29:29.858Z,19.90
2023-02-08T01:31:56.608Z,20.17
2023-02-08T01:34:23.368Z,19.80
2023-02-08T01:36:50.162Z,21.15
2023-02-08T01:39:16.877Z,20.25
2023-02-08T01:41:46.574Z,18.92
2023-02-08T01:44:13.541Z,19.58
2023-02-08T01:46:43.513Z,18.85
2023-02-08T01:49:32.723Z,19.33
2023-02-08T01:52:08.844Z,19.73
2023-02-08T01:54:41.833Z,18.83
2023-02-08T01:57:09.213Z,19.53
2023-02-08T01:59:53.614Z,18.80
2023-02-08T02:02:23.241Z,20.33
2023-02-08T02:04:52.105Z,19.80
2023-02-08T02:07:21.727Z,20.13
2023-02-08T02:10:01.852Z,19.92
2023-02-08T02:12:32.111Z,19.70
2023-02-08T02:15:00.933Z,19.42
2023-02-08T02:17:27.991Z,19.65
2023-02-08T02:20:32.583Z,21.98
2023-02-08T02:23:53.615Z,19.33
2023-02-08T02:27:09.098Z,18.77
2023-02-08T02:30:10.061Z,19.05
2023-02-08T02:33:05.619Z,19.02
2023-02-08T02:36:23.224Z,18.80
2023-02-08T02:39:10.410Z,19.65
2023-02-08T02:42:25.596Z,19.35
2023-02-08T02:48:05.253Z,18.07
2023-02-08T02:50:49.534Z,19.33
2023-02-08T02:56:13.579Z,17.17
2023-02-08T02:58:43.130Z,19.17
2023-02-08T03:01:10.081Z,22.83
2023-02-08T03:03:36.903Z,22.17
2023-02-08T03:06:12.224Z,23.33
2023-02-08T03:09:13.460Z,21.77
2023-02-08T03:11:51.271Z,21.52
2023-02-08T03:14:53.329Z,21.73
2023-02-08T03:17:50.344Z,20.63
2023-02-08T03:20:32.088Z,20.98
2023-02-08T03:23:30.605Z,20.80
2023-02-08T03:26:20.125Z,19.25
2023-02-08T03:29:28.591Z,18.95
2023-02-08T03:32:07.224Z,18.17
2023-02-08T03:34:47.473Z,18.33
2023-02-08T03:37:27.359Z,18.67
2023-02-08T03:40:28.718Z,18.42
2023-02-08T03:43:03.207Z,18.30
2023-02-08T03:45:43.097Z,18.92
2023-02-08T03:48:14.069Z,16.42
2023-02-08T03:50:47.296Z,16.40
2023-02-08T03:53:21.518Z,16.23
2023-02-08T03:55:56.442Z,17.30
2023-02-08T03:58:52.307Z,16.05
2023-02-08T04:01:29.477Z,17.70
2023-02-08T04:03:58.532Z,16.13
2023-02-08T04:06:25.622Z,15.73
2023-02-08T04:08:52.723Z,16.40
2023-02-08T04:11:20.010Z,16.52
2023-02-08T04:13:47.080Z,16.27
2023-02-08T04:16:14.374Z,16.67
2023-02-08T04:18:41.174Z,17.55
2023-02-08T04:21:07.988Z,16.35
2023-02-08T04:23:34.730Z,16.25
2023-02-08T04:26:01.490Z,16.48
2023-02-08T04:28:28.271Z,16.38
2023-02-08T04:30:57.023Z,16.00
2023-02-08T04:33:23.908Z,16.95
2023-02-08T04:35:50.668Z,16.20
2023-02-08T04:38:17.515Z,16.45
2023-02-08T04:40:44.280Z,16.88
2023-02-08T04:43:10.987Z,16.90
2023-02-08T04:45:37.766Z,15.82
2023-02-08T04:48:07.305Z,16.02
2023-02-08T04:50:35.278Z,15.85
2023-02-08T04:53:02.152Z,15.13
2023-02-08T04:55:29.019Z,14.85
2023-02-08T04:57:55.780Z,15.23
2023-02-08T05:00:22.595Z,15.93
2023-02-08T05:02:54.477Z,15.80
2023-02-08T05:05:21.358Z,15.13
2023-02-08T05:07:48.127Z,16.08
2023-02-08T05:10:15.706Z,15.05
2023-02-08T05:12:43.076Z,16.45
2023-02-08T05:15:10.985Z,15.90
2023-02-08T05:17:38.851Z,16.25
2023-02-08T05:20:07.487Z,15.60
2023-02-08T05:22:34.301Z,16.58
2023-02-08T05:25:01.687Z,15.98
2023-02-08T05:27:28.529Z,16.33
2023-02-08T05:29:56.029Z,16.25
2023-02-08T05:32:24.431Z,16.02
2023-02-08T05:34:51.130Z,17.10
2023-02-08T05:37:17.886Z,17.08
2023-02-08T05:39:44.697Z,16.63
2023-02-08T05:42:11.426Z,16.63
2023-02-08T05:44:38.286Z,17.00
2023-02-08T05:47:05.145Z,17.63
2023-02-08T05:49:31.865Z,16.67
2023-02-08T05:51:58.619Z,16.65
2023-02-08T05:54:25.492Z,17.52
2023-02-08T05:56:52.272Z,16.63
2023-02-08T05:59:18.982Z,16.42
2023-02-08T06:01:45.731Z,17.67
2023-02-08T06:04:12.541Z,16.40
2023-02-08T06:06:39.333Z,16.95
2023-02-08T06:09:06.078Z,17.52
2023-02-08T06:11:33.655Z,18.35
2023-02-08T06:14:00.380Z,19.15
2023-02-08T06:16:27.236Z,17.52
2023-02-08T06:18:54.325Z,17.15
2023-02-08T06:21:22.859Z,17.05
2023-02-08T06:23:50.972Z,17.13
2023-02-08T06:26:17.691Z,18.02
2023-02-08T06:28:44.409Z,17.05
2023-02-08T06:31:11.158Z,17.35
2023-02-08T06:33:37.901Z,18.23
2023-02-08T06:36:04.844Z,18.45
2023-02-08T06:38:31.617Z,18.13
2023-02-08T06:40:58.907Z,18.77
2023-02-08T06:43:26.056Z,19.65
2023-02-08T06:45:53.314Z,19.25
2023-02-08T06:48:20.146Z,18.27
2023-02-08T06:50:47.357Z,18.58
2023-02-08T06:53:14.901Z,18.48
2023-02-08T06:55:42.055Z,20.30
2023-02-08T06:58:09.625Z,20.17
2023-02-08T07:00:36.430Z,19.52
2023-02-08T07:03:03.611Z,19.15
2023-02-08T07:05:30.616Z,19.85
2023-02-08T07:07:57.807Z,19.38
2023-02-08T07:10:24.514Z,18.92
2023-02-08T07:12:51.251Z,19.80
2023-02-08T07:15:18.052Z,20.00
2023-02-08T07:17:44.778Z,19.00
2023-02-08T07:20:12.459Z,20.42
2023-02-08T07:22:40.898Z,19.77
2023-02-08T07:25:09.629Z,20.02
2023-02-08T07:27:36.406Z,19.63
2023-02-08T07:30:03.774Z,19.95
2023-02-08T07:32:31.687Z,20.67
2023-02-08T07:34:59.464Z,18.48
2023-02-08T07:37:26.977Z,20.08
2023-02-08T07:39:53.700Z,19.27
2023-02-08T07:42:20.430Z,20.13
2023-02-08T07:44:47.242Z,20.23
2023-02-08T07:47:13.975Z,20.77
2023-02-08T07:49:40.716Z,19.88
2023-02-08T07:52:07.499Z,21.98
2023-02-08T07:54:34.418Z,22.45
2023-02-08T07:57:03.389Z,20.23
2023-02-08T07:59:30.542Z,20.00
2023-02-08T08:01:57.325Z,21.02
2023-02-08T08:04:24.081Z,20.58
2023-02-08T08:06:51.550Z,20.05
2023-02-08T08:09:20.227Z,20.33
2023-02-08T08:11:46.959Z,20.33
2023-02-08T08:14:13.899Z,21.02
2023-02-08T08:16:41.236Z,21.40
2023-02-08T08:19:07.945Z,23.27
2023-02-08T08:21:34.716Z,21.67
2023-02-08T08:24:01.628Z,21.20
2023-02-08T08:26:29.689Z,19.65
2023-02-08T08:28:56.500Z,20.60
2023-02-08T08:31:23.486Z,21.35
2023-02-08T08:33:50.479Z,21.17
2023-02-08T08:36:17.369Z,22.45
2023-02-08T08:38:44.208Z,22.65
2023-02-08T08:41:18.103Z,22.88
2023-02-08T08:46:12.433Z,21.83
2023-02-08T08:48:39.439Z,23.08
2023-02-08T08:51:07.300Z,22.63
2023-02-08T08:53:35.101Z,23.42
2023-02-08T08:56:02.469Z,23.33
2023-02-08T08:58:29.358Z,23.92
2023-02-08T09:01:00.481Z,25.02
2023-02-08T09:03:28.793Z,26.30
2023-02-08T09:05:56.272Z,25.42
2023-02-08T09:08:23.143Z,25.33
2023-02-08T09:10:50.321Z,25.08
2023-02-08T09:13:19.807Z,23.63
2023-02-08T09:15:48.623Z,24.80
2023-02-08T09:18:16.189Z,23.98
2023-02-08T09:20:43.421Z,24.20
2023-02-08T09:23:10.432Z,25.75
2023-02-08T09:25:37.968Z,24.25
2023-02-08T09:28:04.929Z,23.95
2023-02-08T09:30:32.267Z,25.23
2023-02-08T09:32:59.175Z,26.27
2023-02-08T09:35:26.258Z,23.83
2023-02-08T09:37:55.743Z,25.77
2023-02-08T09:40:27.174Z,23.60
2023-02-08T09:43:24.336Z,24.15
2023-02-08T09:46:05.443Z,24.52
2023-02-08T09:48:38.013Z,23.25
2023-02-08T09:51:25.087Z,23.58
2023-02-08T09:54:17.225Z,23.58
2023-02-08T09:56:44.923Z,23.55
2023-02-08T09:59:22.899Z,25.27
2023-02-08T10:01:56.308Z,24.40
2023-02-08T10:04:53.172Z,25.00
2023-02-08T10:07:19.891Z,26.38
2023-02-08T10:09:46.707Z,25.10
2023-02-08T10:13:08.513Z,26.63
2023-02-08T10:15:54.551Z,25.45
2023-02-08T10:18:57.247Z,24.30
2023-02-08T10:22:02.874Z,26.58
2023-02-08T10:25:27.590Z,25.83
2023-02-08T10:28:32.884Z,23.88
2023-02-08T10:31:43.972Z,23.20
2023-02-08T10:34:40.584Z,23.42
2023-02-08T10:37:24.973Z,24.00
2023-02-08T10:39:52.069Z,23.92
2023-02-08T10:42:22.590Z,23.08
2023-02-08T10:45:24.369Z,23.65
2023-02-08T10:48:05.765Z,24.23
2023-02-08T10:50:50.567Z,24.15
2023-02-08T10:53:20.031Z,23.27
2023-02-08T10:55:49.010Z,23.00
2023-02-08T10:58:25.452Z,25.00
2023-02-08T11:00:53.812Z,23.98
2023-02-08T11:03:29.385Z,25.80
2023-02-08T11:05:57.033Z,24.90
2023-02-08T11:08:27.728Z,25.00
2023-02-08T11:11:04.194Z,23.10
2023-02-08T11:13:38.517Z,22.75
2023-02-08T11:16:20.009Z,24.15
2023-02-08T11:18:58.142Z,26.17
2023-02-08T11:21:52.254Z,22.73
2023-02-08T11:24:41.329Z,23.23
2023-02-08T11:27:38.209Z,23.58
2023-02-08T11:30:14.173Z,24.48
2023-02-08T11:32:43.645Z,24.33
2023-02-08T11:35:26.547Z,23.83
2023-02-08T11:37:57.114Z,22.85
2023-02-08T11:40:32.907Z,21.65
2023-02-08T11:43:00.074Z,23.02
2023-02-08T11:45:36.691Z,22.75
2023-02-08T11:48:05.689Z,22.17
2023-02-08T11:50:36.806Z,21.95
2023-02-08T11:53:23.239Z,23.08
2023-02-08T11:56:16.098Z,21.02
2023-02-08T11:58:54.968Z,22.48
2023-02-08T12:01:25.506Z,22.02
2023-02-08T12:03:52.489Z,22.65
2023-02-08T12:06:34.784Z,21.10
2023-02-08T12:09:14.896Z,21.42
2023-02-08T12:11:49.605Z,20.42
2023-02-08T12:14:41.827Z,20.95
2023-02-08T12:17:39.926Z,20.83
2023-02-08T12:20:44.118Z,19.98
2023-02-08T12:23:50.080Z,19.33
2023-02-08T12:26:37.341Z,19.75
2023-02-08T12:29:46.944Z,22.63
2023-02-08T12:32:57.250Z,21.83
2023-02-08T12:36:04.068Z,21.92
2023-02-08T12:39:26.047Z,20.77
2023-02-08T12:42:26.812Z,20.50
2023-02-08T12:45:24.202Z,21.25
2023-02-08T12:48:09.854Z,19.60
2023-02-08T12:50:50.028Z,20.17
2023-02-08T12:53:48.908Z,21.25
2023-02-08T12:56:25.832Z,22.10
2023-02-08T12:59:11.851Z,21.20
2023-02-08T13:01:51.142Z,21.20
2023-02-08T13:04:26.726Z,21.52
2023-02-08T13:07:00.775Z,19.83
2023-02-08T13:12:21.679Z,16.75
2023-02-08T13:15:02.835Z,19.17
2023-02-08T13:17:52.268Z,18.73
2023-02-08T13:20:48.045Z,20.30
2023-02-08T13:23:28.113Z,19.75
2023-02-08T13:26:07.852Z,19.35
2023-02-08T13:28:34.871Z,18.90
2023-02-08T13:31:13.324Z,19.65
2023-02-08T13:34:08.086Z,19.15
2023-02-08T13:39:34.586Z,17.38
2023-02-08T13:42:04.664Z,18.52
2023-02-08T13:44:40.786Z,20.65
2023-02-08T13:47:27.680Z,20.92
2023-02-08T13:49:57.292Z,21.67
2023-02-08T13:52:46.547Z,20.67
2023-02-08T13:55:39.999Z,21.50
2023-02-08T13:58:15.815Z,21.27
2023-02-08T14:00:54.829Z,23.10
2023-02-08T14:03:28.350Z,22.38
2023-02-08T14:05:59.829Z,22.13
2023-02-08T14:08:55.057Z,21.35
2023-02-08T14:11:49.542Z,20.52
2023-02-08T14:14:28.586Z,21.02
2023-02-08T14:17:04.104Z,19.67
2023-02-08T14:19:37.852Z,19.42
2023-02-08T14:22:18.719Z,18.20
2023-02-08T14:25:03.333Z,19.10
2023-02-08T14:27:49.055Z,19.65
2023-02-08T14:30:18.534Z,19.15
2023-02-08T14:33:12.490Z,19.60
2023-02-08T14:35:50.523Z,18.92
2023-02-08T14:38:19.995Z,19.77
2023-02-08T14:40:58.960Z,20.75
2023-02-08T14:43:42.439Z,20.55
2023-02-08T14:46:37.330Z,19.38
2023-02-08T14:49:17.158Z,19.92
2023-02-08T14:51:58.387Z,20.60
2023-02-08T14:54:45.814Z,20.10
2023-02-08T14:57:31.502Z,19.58
2023-02-08T15:00:20.873Z,19.52
2023-02-08T15:02:49.413Z,18.95
2023-02-08T15:05:30.070Z,20.88
2023-02-08T15:08:00.835Z,18.88
2023-02-08T15:10:30.413Z,19.15
2023-02-08T15:13:03.631Z,20.02
2023-02-08T15:15:41.556Z,20.52
2023-02-08T15:18:19.963Z,19.90
2023-02-08T15:21:06.744Z,18.35
2023-02-08T15:23:33.794Z,18.55
2023-02-08T15:26:04.626Z,19.38
2023-02-08T15:28:36.455Z,18.02
2023-02-08T15:31:07.745Z,18.60
2023-02-08T15:33:39.418Z,17.60
2023-02-08T15:36:16.220Z,19.38
2023-02-08T15:38:46.652Z,18.65
2023-02-08T15:41:24.335Z,19.65
2023-02-08T15:43:51.288Z,20.13
2023-02-08T15:46:27.413Z,18.45
2023-02-08T15:48:57.278Z,18.63
2023-02-08T15:51:27.328Z,17.75
2023-02-08T15:53:56.686Z,18.10
2023-02-08T15:56:37.161Z,17.42
2023-02-08T15:59:08.146Z,19.08
2023-02-08T16:01:35.145Z,19.30
2023-02-08T16:04:12.491Z,18.42
2023-02-08T16:06:47.477Z,19.50
2023-02-08T16:09:23.877Z,18.40
2023-02-08T16:11:51.628Z,19.58
2023-02-08T16:14:27.864Z,17.38
2023-02-08T16:16:58.247Z,18.02
2023-02-08T16:19:33.270Z,17.80
2023-02-08T16:22:28.695Z,19.75
2023-02-08T16:25:31.887Z,18.90
2023-02-08T16:27:58.743Z,18.70
2023-02-08T16:30:25.837Z,17.98
2023-02-08T16:32:52.856Z,19.40
2023-02-08T16:35:29.531Z,19.73
2023-02-08T16:38:00.598Z,19.40
2023-02-08T16:40:54.608Z,19.67
2023-02-08T16:43:35.088Z,19.25
2023-02-08T16:46:10.859Z,16.75
2023-02-08T16:48:41.044Z,18.13
2023-02-08T16:51:16.657Z,18.83
2023-02-08T16:53:43.784Z,19.13
2023-02-08T16:56:11.485Z,17.88
2023-02-08T16:58:38.722Z,17.98
2023-02-08T17:01:06.497Z,17.98
2023-02-08T17:03:33.287Z,18.45
2023-02-08T17:06:00.993Z,17.55
2023-02-08T17:08:28.018Z,18.33
2023-02-08T17:10:58.859Z,19.17
2023-02-08T17:13:29.412Z,18.85
2023-02-08T17:16:00.126Z,19.02
2023-02-08T17:18:27.100Z,19.73
2023-02-08T17:20:59.394Z,20.08
2023-02-08T17:23:26.861Z,18.75
2023-02-08T17:25:53.664Z,18.08
2023-02-08T17:28:21.289Z,18.23
2023-02-08T17:30:50.420Z,18.30
2023-02-08T17:33:19.946Z,17.98
2023-02-08T17:35:50.444Z,18.75
2023-02-08T17:38:19.255Z,18.58
2023-02-08T17:40:46.659Z,18.20
2023-02-08T17:43:13.967Z,18.88
2023-02-08T17:45:44.484Z,19.15
2023-02-08T17:48:13.523Z,20.73
2023-02-08T17:50:43.983Z,19.70
2023-02-08T17:53:11.059Z,19.50
2023-02-08T17:55:41.516Z,20.33
2023-02-08T17:58:08.494Z,18.65
2023-02-08T18:00:35.299Z,19.65
2023-02-08T18:03:03.059Z,19.27
2023-02-08T18:05:30.146Z,19.55
2023-02-08T18:07:57.651Z,19.25
2023-02-08T18:10:25.620Z,18.50
2023-02-08T18:12:52.430Z,20.23
2023-02-08T18:15:22.393Z,18.70
2023-02-08T18:17:50.307Z,20.15
2023-02-08T18:20:18.515Z,18.90
2023-02-08T18:22:45.904Z,19.77
2023-02-08T18:25:13.832Z,17.73
2023-02-08T18:27:40.653Z,18.50
2023-02-08T18:30:08.467Z,19.50
2023-02-08T18:32:35.182Z,19.52
2023-02-08T18:35:03.978Z,19.63
2023-02-08T18:37:31.912Z,18.98
2023-02-08T18:39:59.405Z,18.27
2023-02-08T18:42:26.311Z,18.27
2023-02-08T18:44:53.174Z,17.55
2023-02-08T18:47:20.008Z,18.27
2023-02-08T18:49:47.791Z,18.00
2023-02-08T18:52:17.737Z,18.40
2023-02-08T18:54:44.458Z,18.20
2023-02-08T18:57:11.383Z,18.23
2023-02-08T18:59:38.574Z,18.73
2023-02-08T19:02:07.809Z,17.00
2023-02-08T19:04:40.916Z,18.00
2023-02-08T19:07:07.694Z,16.27
2023-02-08T19:09:36.434Z,16.55
2023-02-08T19:12:04.124Z,17.88
2023-02-08T19:14:31.423Z,17.75
2023-02-08T19:16:58.623Z,18.75
2023-02-08T19:19:25.510Z,18.15
2023-02-08T19:21:52.441Z,17.75
2023-02-08T19:24:19.658Z,18.95
2023-02-08T19:26:47.489Z,16.58
2023-02-08T19:29:17.721Z,17.00
2023-02-08T19:31:45.422Z,18.00
2023-02-08T19:34:13.227Z,17.60
2023-02-08T19:36:49.180Z,18.27
2023-02-08T19:39:23.369Z,18.58
2023-02-08T19:41:52.592Z,17.67
2023-02-08T19:44:20.931Z,19.02
2023-02-08T19:46:52.306Z,17.83
2023-02-08T19:49:20.371Z,19.00
2023-02-08T19:51:47.516Z,17.77
2023-02-08T19:54:17.598Z,17.73
2023-02-08T19:56:45.862Z,17.80
2023-02-08T19:59:29.322Z,18.27
2023-02-08T20:01:56.326Z,18.13
2023-02-08T20:04:23.718Z,18.13
2023-02-08T20:06:53.307Z,17.25
2023-02-08T20:09:20.865Z,17.92
2023-02-08T20:11:56.844Z,18.00
2023-02-08T20:14:25.131Z,16.27
2023-02-08T20:16:52.800Z,17.20
2023-02-08T20:19:19.821Z,17.05
2023-02-08T20:21:46.545Z,16.80
2023-02-08T20:24:13.914Z,17.48
2023-02-08T20:26:44.342Z,16.48
2023-02-08T20:29:13.798Z,16.00
2023-02-08T20:31:45.282Z,16.17
2023-02-08T20:34:15.638Z,16.80
2023-02-08T20:37:05.274Z,17.13
2023-02-08T20:39:33.284Z,17.20
2023-02-08T20:42:00.104Z,17.85
2023-02-08T20:44:28.386Z,18.65
2023-02-08T20:46:55.648Z,18.42
2023-02-08T20:49:25.407Z,17.20
2023-02-08T20:51:53.974Z,16.98
2023-02-08T20:54:23.823Z,17.40
2023-02-08T20:56:52.655Z,16.55
2023-02-08T20:59:19.434Z,17.75
2023-02-08T21:01:46.585Z,17.20
2023-02-08T21:04:13.800Z,17.65
2023-02-08T21:06:44.424Z,17.88
2023-02-08T21:09:15.409Z,17.63
2023-02-08T21:11:42.982Z,18.80
2023-02-08T21:14:15.425Z,19.52
2023-02-08T21:16:42.231Z,18.67
2023-02-08T21:19:10.731Z,18.65
2023-02-08T21:21:37.460Z,17.77
2023-02-08T21:24:04.848Z,17.70
2023-02-08T21:26:31.590Z,18.17
2023-02-08T21:28:58.863Z,18.35
2023-02-08T21:31:26.716Z,18.13
2023-02-08T21:33:53.942Z,17.38
2023-02-08T21:36:24.757Z,18.15
2023-02-08T21:38:51.578Z,16.65
2023-02-08T21:41:25.556Z,17.33
2023-02-08T21:46:24.710Z,15.00
2023-02-08T21:49:10.735Z,14.73
2023-02-08T21:51:56.395Z,15.52
2023-02-08T21:54:46.428Z,15.55
2023-02-08T21:57:26.979Z,15.43
2023-02-08T21:59:58.533Z,15.00
2023-02-08T22:02:28.891Z,15.40
2023-02-08T22:05:18.066Z,15.45
2023-02-08T22:07:48.202Z,16.70
2023-02-08T22:10:19.447Z,16.38
2023-02-08T22:12:47.257Z,15.13
2023-02-08T22:15:18.087Z,16.27
2023-02-08T22:17:45.682Z,15.23
2023-02-08T22:20:14.615Z,15.02
2023-02-08T22:22:41.465Z,14.80
2023-02-08T22:25:08.483Z,14.10
2023-02-08T22:27:35.757Z,15.80
2023-02-08T22:30:02.517Z,15.70
2023-02-08T22:32:29.249Z,15.18
2023-02-08T22:34:56.042Z,14.85
2023-02-08T22:37:22.800Z,14.48
2023-02-08T22:39:50.277Z,13.45
2023-02-08T22:42:17.081Z,13.25
2023-02-08T22:44:44.587Z,13.70
2023-02-08T22:47:13.039Z,14.40
2023-02-08T22:49:40.139Z,13.38
2023-02-08T22:52:08.682Z,14.90
2023-02-08T22:54:36.183Z,13.57
2023-02-08T22:57:05.892Z,13.77
2023-02-08T22:59:34.020Z,14.25
2023-02-08T23:02:01.726Z,13.38
2023-02-08T23:04:28.925Z,14.90
2023-02-08T23:06:55.916Z,13.25
2023-02-08T23:09:23.186Z,13.52
2023-02-08T23:11:50.030Z,13.63
2023-02-08T23:14:17.100Z,14.10
2023-02-08T23:16:44.325Z,14.35
2023-02-08T23:19:16.505Z,13.43
2023-02-08T23:21:43.856Z,12.82
2023-02-08T23:24:11.360Z,13.27
2023-02-08T23:26:38.821Z,13.48
2023-02-08T23:29:06.318Z,13.27
2023-02-08T23:31:33.266Z,13.32
2023-02-08T23:34:00.712Z,15.07
2023-02-08T23:36:28.072Z,13.80
2023-02-08T23:38:54.875Z,13.20
2023-02-08T23:41:23.875Z,14.05
2023-02-08T23:43:52.419Z,14.18
2023-02-08T23:46:26.637Z,13.80
2023-02-08T23:48:54.766Z,13.00
2023-02-08T23:51:24.520Z,12.73
2023-02-08T23:53:53.090Z,13.35
2023-02-08T23:56:29.729Z,13.25
2023-02-08T23:58:59.180Z,12.88
